Terminal Aerodrome Forecast
Issued by NWS Mt. Holly, NJ

Home | Current Version | Previous Version | Text Only | Print | Product List | Glossary On
Versions: 1 2 3 4 5 6 7 8 9 10 11 12 13 14
000
FTUS41 KPHI 210500
TAFACY
TAF
KACY 210539Z 2106/2206 VRB03KT P6SM SCT080 BKN100
     FM211500 14006KT P6SM SCT040 BKN100
     FM212200 15008KT P6SM VCSH BKN040 BKN100
     FM220000 14006KT 6SM -SHRA SCT025 BKN040
      TEMPO 2203/2206 5SM SHRA BKN025=

USA.gov is the U.S. government's official web portal to all federal, state and local government web resources and services.